Terminal Aerodrome Forecast
Issued by NWS Quad Cities IA IL

Home | Current Version | Previous Version | Text Only | Print | Product List | Glossary On
Versions: 1 2 3 4 5 6 7 8 9 10 11 12 13 14 15 16 17 18
000
FTUS43 KDVN 211122
TAFMLI
TAF
KMLI 211122Z 2112/2212 08005KT P6SM OVC035
     FM211400 11005KT 4SM BR OVC012
     FM211700 11004KT 1SM BR OVC004
     FM212100 12006KT 1/2SM -DZ FG OVC004 PROB30 2208/2212 1SM SHRA
      BR OVC002=

USA.gov is the U.S. government's official web portal to all federal, state and local government web resources and services.